QTR3E LIRF-OTHH
Flight info
| Callsign | QTR3E |
|---|---|
| Flight time | N/A |
| Altitude | 35000 |
| Route | SIPRO DCT TEA DCT LUNAR DCT UPLAD DCT ALIXI DCT DINOB DCT KFN UM872 PLH UL604 SALUN N705 MMA P751 DASUM Y234 FYM/N0445F370 M872 BDB Y214 RAPMA/N0438F290 Y214 ASPUS Y432 LADBO T142 LAEEB |
| Aircraft | A320/M-SDE3FGHIRWY/LB1 |
Departure
| Time | 2026-05-06 06:59 |
|---|---|
| Airport | Rome–Fiumicino Leonardo da Vinci International Airport (LIRF) |
Arrival
| Time | N/A |
|---|---|
| Airport | Hamad International Airport (OTHH) |
| Time | Latitude | Longitude | Altitude | Speed | Heading |
|---|---|---|---|---|---|
| 2026-05-06 06:40 | 41.79491 | 12.24189 | 15 ft | 0 kts | 340° |
| 2026-05-06 06:47 | 41.79477 | 12.24196 | 15 ft | 4 kts | 340° |
| 2026-05-06 06:47 | 41.79451 | 12.24208 | 18 ft | 4 kts | 340° |
| 2026-05-06 06:48 | 41.79427 | 12.24223 | 17 ft | 4 kts | 324° |
| 2026-05-06 06:48 | 41.79408 | 12.24247 | 17 ft | 4 kts | 289° |
| 2026-05-06 06:48 | 41.79407 | 12.24270 | 15 ft | 1 kts | 249° |
| 2026-05-06 06:48 | 41.79408 | 12.24274 | 15 ft | 0 kts | 249° |
| 2026-05-06 06:50 | 41.79405 | 12.24265 | 15 ft | 5 kts | 249° |
| 2026-05-06 06:50 | 41.79389 | 12.24208 | 16 ft | 6 kts | 249° |
| 2026-05-06 06:51 | 41.79362 | 12.24111 | 15 ft | 14 kts | 251° |
| 2026-05-06 06:51 | 41.79339 | 12.23992 | 15 ft | 12 kts | 250° |
| 2026-05-06 06:51 | 41.79337 | 12.23897 | 16 ft | 11 kts | 309° |
| 2026-05-06 06:51 | 41.79410 | 12.23860 | 15 ft | 10 kts | 342° |
| 2026-05-06 06:52 | 41.79490 | 12.23825 | 16 ft | 15 kts | 343° |
| 2026-05-06 06:52 | 41.79583 | 12.23788 | 17 ft | 13 kts | 342° |
| 2026-05-06 06:52 | 41.79677 | 12.23749 | 15 ft | 17 kts | 342° |
| 2026-05-06 06:52 | 41.79787 | 12.23703 | 15 ft | 16 kts | 343° |
| 2026-05-06 06:53 | 41.79880 | 12.23677 | 15 ft | 10 kts | 23° |
| 2026-05-06 06:53 | 41.79927 | 12.23788 | 15 ft | 22 kts | 70° |
| 2026-05-06 06:53 | 41.79983 | 12.24004 | 15 ft | 24 kts | 74° |
| 2026-05-06 06:53 | 41.80024 | 12.24211 | 15 ft | 23 kts | 69° |
| 2026-05-06 06:54 | 41.80080 | 12.24413 | 15 ft | 23 kts | 70° |
| 2026-05-06 06:54 | 41.80136 | 12.24615 | 15 ft | 23 kts | 69° |
| 2026-05-06 06:54 | 41.80192 | 12.24821 | 16 ft | 24 kts | 71° |
| 2026-05-06 06:54 | 41.80205 | 12.25035 | 15 ft | 23 kts | 89° |
| 2026-05-06 06:55 | 41.80255 | 12.25243 | 15 ft | 24 kts | 69° |
| 2026-05-06 06:55 | 41.80311 | 12.25452 | 15 ft | 24 kts | 70° |
| 2026-05-06 06:55 | 41.80369 | 12.25657 | 15 ft | 24 kts | 69° |
| 2026-05-06 06:55 | 41.80427 | 12.25869 | 15 ft | 24 kts | 70° |
| 2026-05-06 06:56 | 41.80483 | 12.26077 | 15 ft | 24 kts | 70° |
| 2026-05-06 06:56 | 41.80540 | 12.26279 | 15 ft | 23 kts | 70° |
| 2026-05-06 06:56 | 41.80597 | 12.26484 | 16 ft | 23 kts | 69° |
| 2026-05-06 06:56 | 41.80652 | 12.26686 | 15 ft | 23 kts | 69° |
| 2026-05-06 06:57 | 41.80707 | 12.26885 | 15 ft | 23 kts | 69° |
| 2026-05-06 06:57 | 41.80759 | 12.27038 | 15 ft | 16 kts | 48° |
| 2026-05-06 06:57 | 41.80851 | 12.27023 | 15 ft | 13 kts | 340° |
| 2026-05-06 06:57 | 41.80929 | 12.26985 | 15 ft | 11 kts | 336° |
| 2026-05-06 06:58 | 41.80951 | 12.26901 | 13 ft | 10 kts | 248° |
| 2026-05-06 06:58 | 41.80894 | 12.26693 | 14 ft | 55 kts | 249° |
| 2026-05-06 06:58 | 41.80679 | 12.25919 | 17 ft | 119 kts | 250° |
| 2026-05-06 06:58 | 41.80325 | 12.24648 | 17 ft | 169 kts | 249° |
| 2026-05-06 06:59 | 41.79902 | 12.23082 | 429 ft | 181 kts | 246° |
| 2026-05-06 06:59 | 41.79440 | 12.21525 | 1170 ft | 177 kts | 236° |
| 2026-05-06 06:59 | 41.78674 | 12.20302 | 1861 ft | 171 kts | 215° |
| 2026-05-06 06:59 | 41.77718 | 12.19231 | 2148 ft | 189 kts | 216° |
| 2026-05-06 07:00 | 41.76685 | 12.18086 | 2709 ft | 193 kts | 217° |
| 2026-05-06 07:00 | 41.75589 | 12.17061 | 3375 ft | 192 kts | 200° |
| 2026-05-06 07:00 | 41.74228 | 12.16795 | 3763 ft | 211 kts | 174° |
| 2026-05-06 07:00 | 41.72811 | 12.17621 | 4026 ft | 241 kts | 140° |
| 2026-05-06 07:01 | 41.71910 | 12.19644 | 4385 ft | 268 kts | 111° |
| 2026-05-06 07:01 | 41.71413 | 12.22104 | 5005 ft | 279 kts | 105° |
| 2026-05-06 07:01 | 41.71025 | 12.24681 | 5673 ft | 286 kts | 103° |
| 2026-05-06 07:01 | 41.70665 | 12.27323 | 6363 ft | 291 kts | 102° |
| 2026-05-06 07:02 | 41.70292 | 12.30008 | 7033 ft | 295 kts | 102° |
| 2026-05-06 07:02 | 41.69897 | 12.32723 | 7752 ft | 299 kts | 103° |
| 2026-05-06 07:02 | 41.69484 | 12.35427 | 8449 ft | 302 kts | 104° |
| 2026-05-06 07:02 | 41.69049 | 12.38192 | 9159 ft | 305 kts | 104° |
| 2026-05-06 07:03 | 41.68602 | 12.40980 | 9912 ft | 309 kts | 104° |
| 2026-05-06 07:03 | 41.68136 | 12.43838 | 10400 ft | 324 kts | 104° |
| 2026-05-06 07:03 | 41.67633 | 12.46895 | 10652 ft | 348 kts | 104° |
| 2026-05-06 07:03 | 41.67127 | 12.50149 | 11055 ft | 366 kts | 100° |
| 2026-05-06 07:04 | 41.66944 | 12.53581 | 11693 ft | 373 kts | 94° |
| 2026-05-06 07:04 | 41.66838 | 12.57059 | 12349 ft | 376 kts | 94° |
| 2026-05-06 07:04 | 41.66725 | 12.60566 | 13008 ft | 378 kts | 94° |
| 2026-05-06 07:04 | 41.66608 | 12.64094 | 13664 ft | 381 kts | 94° |
| 2026-05-06 07:05 | 41.66487 | 12.67652 | 14239 ft | 384 kts | 94° |
| 2026-05-06 07:05 | 41.66362 | 12.71235 | 14780 ft | 388 kts | 94° |
| 2026-05-06 07:05 | 41.66233 | 12.74859 | 15335 ft | 391 kts | 94° |
| 2026-05-06 07:05 | 41.66102 | 12.78499 | 15883 ft | 394 kts | 94° |
| 2026-05-06 07:06 | 41.65974 | 12.82176 | 16423 ft | 397 kts | 94° |
| 2026-05-06 07:06 | 41.65847 | 12.85878 | 16943 ft | 400 kts | 94° |
| 2026-05-06 07:06 | 41.65721 | 12.89604 | 17464 ft | 403 kts | 94° |
| 2026-05-06 07:06 | 41.65594 | 12.93366 | 17990 ft | 406 kts | 94° |
| 2026-05-06 07:07 | 41.65460 | 12.97159 | 18480 ft | 409 kts | 95° |
| 2026-05-06 07:07 | 41.65324 | 13.00966 | 18887 ft | 412 kts | 95° |
| 2026-05-06 07:07 | 41.65184 | 13.04800 | 19274 ft | 415 kts | 95° |
| 2026-05-06 07:07 | 41.65039 | 13.08684 | 19704 ft | 419 kts | 95° |
| 2026-05-06 07:08 | 41.64891 | 13.12586 | 20129 ft | 422 kts | 95° |
| 2026-05-06 07:08 | 41.64741 | 13.16522 | 20542 ft | 425 kts | 95° |
| 2026-05-06 07:08 | 41.64590 | 13.20483 | 20924 ft | 429 kts | 95° |
| 2026-05-06 07:08 | 41.64382 | 13.24470 | 21296 ft | 431 kts | 100° |
| 2026-05-06 07:09 | 41.63750 | 13.28382 | 21665 ft | 431 kts | 110° |
| 2026-05-06 07:09 | 41.62640 | 13.32086 | 22041 ft | 430 kts | 120° |